Pagrindinis puslapis
METAR-TAF:

METAR-TAF

Oro uostai :

Haikou, Kinija

platuma: 19-56-05N, ilguma: 110-27-32E, Aukštis: 23 m

Dabartinis oras

Ataskaita buvo paskelbta 51 minutes, ne 14:00 UTC
Vėjas 4 kt iš Pietryčių
Temperatūra 28°C
Drėgmė 89%
Slėgis 1008 hPa
Matomumas 10 km arba daugiau
nėra debesų žemiau 1500 m ir nėra kamuolinių lietaus debesų

METAR: ZJHK 291400Z 14002MPS CAVOK 28/26 Q1008 NOSIG

Laikas: 22:51 (14:51 UTC)

Prognozė

Ataskaita buvo paskelbta 5 valandos ir 46 minutes, ne 09:05 UTC
Prognozė galioja nuo 29 metu 12 UTC su 30 metu 12 UTC
Vėjas 8 kt iš Pietų
Matomumas 10 km arba daugiau
Išsisklaidę debesys ne aukštis 2000 ft
Laikinai
nuo 30 metu 06 UTC su 30 metu 12 UTC
Išsisklaidę debesys ne aukštis 2000 ft
Mažai debesys ne aukštis 2300 ft, Liūtiniai kamuoliniai debesys.
perkūnija, lietus

TAF: ZJHK 290905Z 2912/3012 18004MPS 9999 SCT020 TX35/3006Z TN26/2921Z TEMPO 3006/3012 -TSRA SCT020 FEW023CB

Orai ataskaitas ir orų prognozės (METAR, TAF).

turimą stotys yra geltonos ir raudonos taškus žemėlapyje.

Perkelti pele per norėdami pamatyti stoties vardą.

Tada spustelėkite, norėdami matyti oro stebėjimo ir prognozės.

Norėdami pakeisti žemėlapį: spustelėkite ant žalios mygtukų su juodo kryžiaus žemyn,; žalią mygtuką su brūkšneliu, jei norite nutolinti; arba žalių rodyklių gretimoms žemėlapius.


METAR-TAF: